createdAt,value
2022-10-16T00:02:25.428Z,12.70
2022-10-16T00:04:53.351Z,12.70
2022-10-16T00:07:21.234Z,12.70
2022-10-16T00:09:49.300Z,12.70
2022-10-16T00:12:18.644Z,12.70
2022-10-16T00:14:46.517Z,12.70
2022-10-16T00:17:14.425Z,12.60
2022-10-16T00:19:42.294Z,12.60
2022-10-16T00:22:28.873Z,12.60
2022-10-16T00:24:56.865Z,12.60
2022-10-16T00:27:26.169Z,12.50
2022-10-16T00:29:54.286Z,12.50
2022-10-16T00:32:22.158Z,12.50
2022-10-16T00:34:50.053Z,12.50
2022-10-16T00:37:17.936Z,12.60
2022-10-16T00:39:45.809Z,12.50
2022-10-16T00:42:16.539Z,12.50
2022-10-16T00:44:47.276Z,12.50
2022-10-16T00:47:17.687Z,12.50
2022-10-16T00:49:45.559Z,12.40
2022-10-16T00:52:14.031Z,12.50
2022-10-16T00:54:42.092Z,12.40
2022-10-16T00:57:10.035Z,12.40
2022-10-16T00:59:39.117Z,12.40
2022-10-16T01:02:09.615Z,12.40
2022-10-16T01:04:38.824Z,12.40
2022-10-16T01:07:12.206Z,12.40
2022-10-16T01:09:45.812Z,12.40
2022-10-16T01:12:16.008Z,12.40
2022-10-16T01:14:47.783Z,12.30
2022-10-16T01:17:20.246Z,12.40
2022-10-16T01:20:03.522Z,12.30
2022-10-16T01:22:37.828Z,12.30
2022-10-16T01:25:07.935Z,12.30
2022-10-16T01:27:38.036Z,12.30
2022-10-16T01:30:10.840Z,12.30
2022-10-16T01:32:38.735Z,12.30
2022-10-16T01:35:10.469Z,12.20
2022-10-16T01:37:40.648Z,12.20
2022-10-16T01:40:11.214Z,12.20
2022-10-16T01:42:41.735Z,12.20
2022-10-16T01:45:12.394Z,12.20
2022-10-16T01:47:41.029Z,12.20
2022-10-16T01:50:10.008Z,12.20
2022-10-16T01:52:39.339Z,12.20
2022-10-16T01:55:08.591Z,12.20
2022-10-16T01:57:38.550Z,12.30
2022-10-16T02:00:09.885Z,12.20
2022-10-16T02:02:38.833Z,12.20
2022-10-16T02:05:10.178Z,12.30
2022-10-16T02:07:38.216Z,12.30
2022-10-16T02:10:06.578Z,12.30
2022-10-16T02:12:35.918Z,12.30
2022-10-16T02:15:03.924Z,12.30
2022-10-16T02:17:34.183Z,12.30
2022-10-16T02:20:02.354Z,12.30
2022-10-16T02:22:31.887Z,12.20
2022-10-16T02:25:01.282Z,12.30
2022-10-16T02:27:32.755Z,12.30
2022-10-16T02:30:08.666Z,12.30
2022-10-16T02:32:39.294Z,12.30
2022-10-16T02:35:09.125Z,12.30
2022-10-16T02:37:37.975Z,12.30
2022-10-16T02:40:06.988Z,12.30
2022-10-16T02:42:35.762Z,12.30
2022-10-16T02:45:03.701Z,12.30
2022-10-16T02:47:31.686Z,12.30
2022-10-16T02:50:01.038Z,12.30
2022-10-16T02:52:29.379Z,12.30
2022-10-16T02:54:57.509Z,12.30
2022-10-16T02:57:25.797Z,12.30
2022-10-16T02:59:54.040Z,12.30
2022-10-16T03:02:22.033Z,12.30
2022-10-16T03:04:49.956Z,12.30
2022-10-16T03:07:19.215Z,12.20
2022-10-16T03:09:47.147Z,12.20
2022-10-16T03:12:15.061Z,12.20
2022-10-16T03:14:42.984Z,12.20
2022-10-16T03:17:11.151Z,12.20
2022-10-16T03:19:39.059Z,12.20
2022-10-16T03:22:06.992Z,12.20
2022-10-16T03:24:36.275Z,12.20
2022-10-16T03:27:04.259Z,12.20
2022-10-16T03:29:33.151Z,12.10
2022-10-16T03:32:01.412Z,12.10
2022-10-16T03:34:29.355Z,12.20
2022-10-16T03:36:57.590Z,12.20
2022-10-16T03:39:25.696Z,12.20
2022-10-16T03:41:54.971Z,12.20
2022-10-16T03:44:22.835Z,12.20
2022-10-16T03:46:50.764Z,12.20
2022-10-16T03:49:18.677Z,12.30
2022-10-16T03:51:46.838Z,12.30
2022-10-16T03:54:14.737Z,12.30
2022-10-16T03:56:42.638Z,12.30
2022-10-16T03:59:11.858Z,12.30
2022-10-16T04:01:39.711Z,12.30
2022-10-16T04:04:07.613Z,12.30
2022-10-16T04:06:35.666Z,12.40
2022-10-16T04:09:04.141Z,12.40
2022-10-16T04:11:31.997Z,12.50
2022-10-16T04:14:00.026Z,12.40
2022-10-16T04:16:29.332Z,12.40
2022-10-16T04:18:57.269Z,12.50
2022-10-16T04:21:25.181Z,12.50
2022-10-16T04:23:53.042Z,12.50
2022-10-16T04:26:20.909Z,12.50
2022-10-16T04:28:48.862Z,12.50
2022-10-16T04:31:16.874Z,12.50
2022-10-16T04:33:46.175Z,12.50
2022-10-16T04:36:14.886Z,12.50
2022-10-16T04:38:42.847Z,12.60
2022-10-16T04:41:10.793Z,12.60
2022-10-16T04:43:38.675Z,12.60
2022-10-16T04:46:06.571Z,12.60
2022-10-16T04:48:34.808Z,12.60
2022-10-16T04:51:04.016Z,12.60
2022-10-16T04:53:31.892Z,12.60
2022-10-16T04:55:59.784Z,12.60
2022-10-16T04:58:27.645Z,12.60
2022-10-16T05:00:55.510Z,12.60
2022-10-16T05:03:23.511Z,12.60
2022-10-16T05:05:51.568Z,12.60
2022-10-16T05:08:20.891Z,12.60
2022-10-16T05:10:48.783Z,12.60
2022-10-16T05:13:16.674Z,12.60
2022-10-16T05:15:44.530Z,12.60
2022-10-16T05:18:12.492Z,12.60
2022-10-16T05:20:40.520Z,12.60
2022-10-16T05:23:08.667Z,12.70
2022-10-16T05:25:37.945Z,12.70
2022-10-16T05:28:06.024Z,12.70
2022-10-16T05:30:33.980Z,12.70
2022-10-16T05:33:01.850Z,12.70
2022-10-16T05:35:29.715Z,12.70
2022-10-16T05:37:57.619Z,12.70
2022-10-16T05:40:25.567Z,12.70
2022-10-16T05:42:57.823Z,12.70
2022-10-16T05:45:25.734Z,12.70
2022-10-16T05:47:53.554Z,12.70
2022-10-16T05:50:21.608Z,12.70
2022-10-16T05:52:49.540Z,12.70
2022-10-16T05:55:17.582Z,12.80
2022-10-16T05:57:45.482Z,12.70
2022-10-16T06:00:14.928Z,12.60
2022-10-16T06:02:42.935Z,12.70
2022-10-16T06:05:10.803Z,12.70
2022-10-16T06:07:38.718Z,12.70
2022-10-16T06:10:07.117Z,12.70
2022-10-16T06:12:35.055Z,12.70
2022-10-16T06:15:03.027Z,12.70
2022-10-16T06:17:32.306Z,12.70
2022-10-16T06:20:00.299Z,12.70
2022-10-16T06:22:28.305Z,12.70
2022-10-16T06:24:56.190Z,12.70
2022-10-16T06:27:24.320Z,12.70
2022-10-16T06:29:52.294Z,12.70
2022-10-16T06:32:20.213Z,12.70
2022-10-16T06:34:49.454Z,12.70
2022-10-16T06:37:17.337Z,12.70
2022-10-16T06:39:45.276Z,12.70
2022-10-16T06:42:13.246Z,12.70
2022-10-16T06:44:41.203Z,12.70
2022-10-16T06:47:09.255Z,12.80
2022-10-16T06:49:37.150Z,12.80
2022-10-16T06:52:06.698Z,12.80
2022-10-16T06:54:42.127Z,12.80
2022-10-16T06:57:10.491Z,12.80
2022-10-16T06:59:38.402Z,12.80
2022-10-16T07:02:07.940Z,12.80
2022-10-16T07:04:35.857Z,12.80
2022-10-16T07:07:06.897Z,12.80
2022-10-16T07:09:38.651Z,12.80
2022-10-16T07:12:06.657Z,12.80
2022-10-16T07:14:34.614Z,12.80
2022-10-16T07:17:02.615Z,12.80
2022-10-16T07:19:33.435Z,12.90
2022-10-16T07:22:02.447Z,12.90
2022-10-16T07:24:30.327Z,12.90
2022-10-16T07:26:59.639Z,12.90
2022-10-16T07:29:27.653Z,13.10
2022-10-16T07:31:55.608Z,13.00
2022-10-16T07:34:23.670Z,13.00
2022-10-16T07:36:51.932Z,13.00
2022-10-16T07:39:20.023Z,13.10
2022-10-16T07:41:48.008Z,13.10
2022-10-16T07:44:18.797Z,13.20
2022-10-16T07:46:46.716Z,13.10
2022-10-16T07:49:14.625Z,13.20
2022-10-16T07:51:42.707Z,13.20
2022-10-16T07:54:10.711Z,13.30
2022-10-16T07:56:41.381Z,13.30
2022-10-16T07:59:11.890Z,13.30
2022-10-16T08:01:42.954Z,13.30
2022-10-16T08:04:11.439Z,13.40
2022-10-16T08:06:40.326Z,13.40
2022-10-16T08:09:08.580Z,13.40
2022-10-16T08:11:36.657Z,13.50
2022-10-16T08:14:04.550Z,13.50
2022-10-16T08:16:32.487Z,13.60
2022-10-16T08:19:01.684Z,13.70
2022-10-16T08:21:29.533Z,13.70
2022-10-16T08:23:58.698Z,13.80
2022-10-16T08:26:27.446Z,13.90
2022-10-16T08:28:55.610Z,14.00
2022-10-16T08:31:23.974Z,14.00
2022-10-16T08:33:53.119Z,14.00
2022-10-16T08:36:22.545Z,14.10
2022-10-16T08:38:51.461Z,14.20
2022-10-16T08:41:27.130Z,14.30
2022-10-16T08:44:13.202Z,14.30
2022-10-16T08:46:50.389Z,14.40
2022-10-16T08:49:18.796Z,14.40
2022-10-16T08:51:50.407Z,14.40
2022-10-16T08:54:25.070Z,14.50
2022-10-16T08:56:53.025Z,14.50
2022-10-16T08:59:22.193Z,14.50
2022-10-16T09:01:52.588Z,14.50
2022-10-16T09:04:35.301Z,14.60
2022-10-16T09:07:06.793Z,14.50
2022-10-16T09:09:43.354Z,14.50
2022-10-16T09:12:14.167Z,14.60
2022-10-16T09:14:49.348Z,14.60
2022-10-16T09:17:25.113Z,14.60
2022-10-16T09:19:55.104Z,14.60
2022-10-16T09:22:28.287Z,14.60
2022-10-16T09:24:57.060Z,14.70
2022-10-16T09:27:25.278Z,14.70
2022-10-16T09:29:59.831Z,14.70
2022-10-16T09:32:28.297Z,14.70
2022-10-16T09:34:58.472Z,14.70
2022-10-16T09:37:29.309Z,14.70
2022-10-16T09:39:57.895Z,14.70
2022-10-16T09:42:26.892Z,14.80
2022-10-16T09:44:55.487Z,14.90
2022-10-16T09:47:26.818Z,14.90
2022-10-16T09:49:56.056Z,15.00
2022-10-16T09:52:24.337Z,15.10
2022-10-16T09:54:54.757Z,15.20
2022-10-16T09:57:23.144Z,15.20
2022-10-16T09:59:52.382Z,15.30
2022-10-16T10:02:21.584Z,15.40
2022-10-16T10:04:55.036Z,15.40
2022-10-16T10:07:26.110Z,15.50
2022-10-16T10:09:56.719Z,15.50
2022-10-16T10:12:27.107Z,15.60
2022-10-16T10:14:58.620Z,15.60
2022-10-16T10:17:27.029Z,15.70
2022-10-16T10:19:56.018Z,15.70
2022-10-16T10:22:26.373Z,16.20
2022-10-16T10:25:16.730Z,15.70
2022-10-16T10:28:14.757Z,15.70
2022-10-16T10:30:46.072Z,15.70
2022-10-16T10:33:19.650Z,15.80
2022-10-16T10:35:54.387Z,15.80
2022-10-16T10:38:28.033Z,15.80
2022-10-16T10:41:03.580Z,15.90
2022-10-16T10:43:41.978Z,15.90
2022-10-16T10:46:14.048Z,16.00
2022-10-16T10:48:49.510Z,16.00
2022-10-16T10:51:22.144Z,16.10
2022-10-16T10:53:57.080Z,16.10
2022-10-16T10:56:37.214Z,16.10
2022-10-16T10:59:10.931Z,16.20
2022-10-16T11:01:42.985Z,16.20
2022-10-16T11:04:21.265Z,16.30
2022-10-16T11:06:50.731Z,16.30
2022-10-16T11:09:20.597Z,16.40
2022-10-16T11:11:51.668Z,16.50
2022-10-16T11:14:21.653Z,16.60
2022-10-16T11:16:52.319Z,16.70
2022-10-16T11:19:24.162Z,16.80
2022-10-16T11:21:55.884Z,16.80
2022-10-16T11:24:25.170Z,16.90
2022-10-16T11:26:56.234Z,17.00
2022-10-16T11:29:25.474Z,17.00
2022-10-16T11:31:55.400Z,17.10
2022-10-16T11:34:26.678Z,17.10
2022-10-16T11:36:57.754Z,17.10
2022-10-16T11:39:27.154Z,17.10
2022-10-16T11:41:57.791Z,17.10
2022-10-16T11:44:49.949Z,17.10
2022-10-16T11:47:46.807Z,17.00
2022-10-16T11:50:19.316Z,17.00
2022-10-16T11:52:53.705Z,16.90
2022-10-16T11:55:22.907Z,16.80
2022-10-16T11:57:53.959Z,16.90
2022-10-16T12:00:23.843Z,16.90
2022-10-16T12:02:56.736Z,16.90
2022-10-16T12:05:27.272Z,16.80
2022-10-16T12:08:01.785Z,17.00
2022-10-16T12:10:30.482Z,17.10
2022-10-16T12:12:59.781Z,17.20
2022-10-16T12:18:23.216Z,17.40
2022-10-16T12:20:59.785Z,18.30
2022-10-16T12:23:27.705Z,17.80
2022-10-16T12:25:56.963Z,17.80
2022-10-16T12:28:28.857Z,17.80
2022-10-16T12:30:57.644Z,17.80
2022-10-16T12:33:26.552Z,17.90
2022-10-16T12:35:55.253Z,18.10
2022-10-16T12:38:26.994Z,18.30
2022-10-16T12:40:59.975Z,18.50
2022-10-16T12:43:36.784Z,18.60
2022-10-16T12:46:05.851Z,18.90
2022-10-16T12:48:48.254Z,19.10
2022-10-16T12:51:24.915Z,19.30
2022-10-16T12:54:02.121Z,19.70
2022-10-16T12:56:36.399Z,20.10
2022-10-16T12:59:11.760Z,20.30
2022-10-16T13:01:44.437Z,20.50
2022-10-16T13:04:22.953Z,20.40
2022-10-16T13:06:53.734Z,20.40
2022-10-16T13:09:32.525Z,20.50
2022-10-16T13:12:06.502Z,20.80
2022-10-16T13:14:49.276Z,20.90
2022-10-16T13:17:24.498Z,21.30
2022-10-16T13:19:57.072Z,21.40
2022-10-16T13:22:27.793Z,21.50
2022-10-16T13:25:04.207Z,21.70
2022-10-16T13:27:37.465Z,21.80
2022-10-16T13:30:12.933Z,21.90
2022-10-16T13:32:42.510Z,21.80
2022-10-16T13:35:20.785Z,22.00
2022-10-16T13:37:48.650Z,22.10
2022-10-16T13:40:20.841Z,22.20
2022-10-16T13:42:48.776Z,22.20
2022-10-16T13:45:20.315Z,22.30
2022-10-16T13:47:49.776Z,22.40
2022-10-16T13:50:18.788Z,22.50
2022-10-16T13:52:46.640Z,22.50
2022-10-16T13:55:15.268Z,22.30
2022-10-16T13:57:43.323Z,22.30
2022-10-16T14:00:21.133Z,22.40
2022-10-16T14:02:54.391Z,22.40
2022-10-16T14:05:22.334Z,22.70
2022-10-16T14:07:51.743Z,22.70
2022-10-16T14:10:24.862Z,22.80
2022-10-16T14:12:56.859Z,22.90
2022-10-16T14:15:24.846Z,22.80
2022-10-16T14:17:54.834Z,22.80
2022-10-16T14:20:25.075Z,22.40
2022-10-16T14:23:00.545Z,22.40
2022-10-16T14:25:29.756Z,22.20
2022-10-16T14:30:36.280Z,22.20
2022-10-16T14:33:06.438Z,22.10
2022-10-16T14:35:35.333Z,21.70
2022-10-16T14:38:04.130Z,21.40
2022-10-16T14:40:33.142Z,21.00
2022-10-16T14:43:01.100Z,21.00
2022-10-16T14:45:30.022Z,21.20
2022-10-16T14:47:59.285Z,21.20
2022-10-16T14:50:28.613Z,21.30
2022-10-16T14:52:56.974Z,21.20
2022-10-16T14:55:25.441Z,21.20
2022-10-16T14:57:56.943Z,20.80
2022-10-16T15:00:27.718Z,21.30
2022-10-16T15:02:55.559Z,21.20
2022-10-16T15:05:24.636Z,21.20
2022-10-16T15:07:55.798Z,21.10
2022-10-16T15:10:24.535Z,21.10
2022-10-16T15:12:52.449Z,21.00
2022-10-16T15:15:26.750Z,20.80
2022-10-16T15:17:57.021Z,20.70
2022-10-16T15:20:25.575Z,20.60
2022-10-16T15:22:54.869Z,20.50
2022-10-16T15:25:37.598Z,20.50
2022-10-16T15:28:05.919Z,20.30
2022-10-16T15:30:33.795Z,20.10
2022-10-16T15:33:01.779Z,20.00
2022-10-16T15:35:29.804Z,19.80
2022-10-16T15:37:59.411Z,19.70
2022-10-16T15:40:27.259Z,19.60
2022-10-16T15:42:55.796Z,19.50
2022-10-16T15:45:23.636Z,19.40
2022-10-16T15:47:51.537Z,19.30
2022-10-16T15:50:19.472Z,19.30
2022-10-16T15:52:47.369Z,19.10
2022-10-16T15:55:16.751Z,19.00
2022-10-16T15:57:44.765Z,18.90
2022-10-16T16:00:13.766Z,18.70
2022-10-16T16:02:41.925Z,18.70
2022-10-16T16:05:10.581Z,18.60
2022-10-16T16:07:39.088Z,18.50
2022-10-16T16:10:08.196Z,18.40
2022-10-16T16:12:39.681Z,18.30
2022-10-16T16:15:08.416Z,18.20
2022-10-16T16:17:37.340Z,18.10
2022-10-16T16:20:06.467Z,18.10
2022-10-16T16:22:34.330Z,18.00
2022-10-16T16:25:02.222Z,18.00
2022-10-16T16:27:34.408Z,17.90
2022-10-16T16:30:04.472Z,17.90
2022-10-16T16:32:32.786Z,17.90
2022-10-16T16:35:00.696Z,17.80
2022-10-16T16:37:28.920Z,17.70
2022-10-16T16:39:59.364Z,17.80
2022-10-16T16:42:27.549Z,17.60
2022-10-16T16:44:55.565Z,17.60
2022-10-16T16:47:25.209Z,17.50
2022-10-16T16:49:53.464Z,17.40
2022-10-16T16:52:21.325Z,17.30
2022-10-16T16:54:52.854Z,17.30
2022-10-16T16:57:21.387Z,17.20
2022-10-16T16:59:51.808Z,17.20
2022-10-16T17:02:19.822Z,17.10
2022-10-16T17:04:49.186Z,17.10
2022-10-16T17:07:18.581Z,17.00
2022-10-16T17:09:48.705Z,16.90
2022-10-16T17:12:16.653Z,16.80
2022-10-16T17:14:44.761Z,16.80
2022-10-16T17:17:12.776Z,16.70
2022-10-16T17:19:40.695Z,16.70
2022-10-16T17:22:10.072Z,16.60
2022-10-16T17:24:38.026Z,16.60
2022-10-16T17:27:06.243Z,16.50
2022-10-16T17:29:34.240Z,16.40
2022-10-16T17:32:02.282Z,16.40
2022-10-16T17:34:30.548Z,16.30
2022-10-16T17:36:58.734Z,16.20
2022-10-16T17:39:28.118Z,16.20
2022-10-16T17:41:56.020Z,16.10
2022-10-16T17:44:23.972Z,16.00
2022-10-16T17:46:52.972Z,16.00
2022-10-16T17:49:21.453Z,15.90
2022-10-16T17:51:51.393Z,15.90
2022-10-16T17:54:19.341Z,15.80
2022-10-16T17:56:48.859Z,15.70
2022-10-16T17:59:16.839Z,15.70
2022-10-16T18:01:46.276Z,15.70
2022-10-16T18:04:16.530Z,15.60
2022-10-16T18:06:45.122Z,15.60
2022-10-16T18:09:15.488Z,15.50
2022-10-16T18:11:43.563Z,15.50
2022-10-16T18:14:14.233Z,15.40
2022-10-16T18:16:42.492Z,15.40
2022-10-16T18:19:10.789Z,15.30
2022-10-16T18:21:38.700Z,15.30
2022-10-16T18:24:06.908Z,15.30
2022-10-16T18:26:34.818Z,15.20
2022-10-16T18:29:03.150Z,15.20
2022-10-16T18:31:33.397Z,15.10
2022-10-16T18:34:01.915Z,15.10
2022-10-16T18:36:30.903Z,15.10
2022-10-16T18:38:59.055Z,15.00
2022-10-16T18:41:27.680Z,15.00
2022-10-16T18:43:56.246Z,15.00
2022-10-16T18:46:25.106Z,14.90
2022-10-16T18:48:54.552Z,14.90
2022-10-16T18:51:23.849Z,14.80
2022-10-16T18:53:53.728Z,14.80
2022-10-16T18:56:23.430Z,14.80
2022-10-16T18:58:53.454Z,14.70
2022-10-16T19:01:22.735Z,14.70
2022-10-16T19:03:54.796Z,14.60
2022-10-16T19:06:24.329Z,14.60
2022-10-16T19:08:52.280Z,14.50
2022-10-16T19:11:21.038Z,14.50
2022-10-16T19:13:49.161Z,14.50
2022-10-16T19:16:20.661Z,14.50
2022-10-16T19:18:49.876Z,14.40
2022-10-16T19:21:18.501Z,14.40
2022-10-16T19:23:47.843Z,14.40
2022-10-16T19:26:16.518Z,14.30
2022-10-16T19:28:45.545Z,14.30
2022-10-16T19:31:14.162Z,14.30
2022-10-16T19:33:42.356Z,14.30
2022-10-16T19:36:11.045Z,14.30
2022-10-16T19:38:39.599Z,14.20
2022-10-16T19:41:11.104Z,14.20
2022-10-16T19:43:39.757Z,14.20
2022-10-16T19:46:08.871Z,14.20
2022-10-16T19:48:37.430Z,14.10
2022-10-16T19:51:06.072Z,14.10
2022-10-16T19:53:34.517Z,14.10
2022-10-16T19:56:02.551Z,14.10
2022-10-16T19:58:31.875Z,14.00
2022-10-16T20:00:59.863Z,12.90
2022-10-16T20:03:27.932Z,14.00
2022-10-16T20:05:56.966Z,14.00
2022-10-16T20:08:25.786Z,14.00
2022-10-16T20:10:55.192Z,14.00
2022-10-16T20:13:23.689Z,13.90
2022-10-16T20:15:53.165Z,13.90
2022-10-16T20:18:21.407Z,13.90
2022-10-16T20:20:51.454Z,13.90
2022-10-16T20:23:19.558Z,13.90
2022-10-16T20:25:47.882Z,13.90
2022-10-16T20:28:18.260Z,13.90
2022-10-16T20:30:47.166Z,13.80
2022-10-16T20:33:17.136Z,13.90
2022-10-16T20:35:45.652Z,13.80
2022-10-16T20:38:14.227Z,13.80
2022-10-16T20:40:43.399Z,13.80
2022-10-16T20:43:13.106Z,13.80
2022-10-16T20:45:41.085Z,13.80
2022-10-16T20:48:09.271Z,13.70
2022-10-16T20:50:38.836Z,13.80
2022-10-16T20:53:06.955Z,13.70
2022-10-16T20:55:35.955Z,13.70
2022-10-16T20:58:03.905Z,13.70
2022-10-16T21:00:31.851Z,13.70
2022-10-16T21:02:59.780Z,13.70
2022-10-16T21:05:28.890Z,13.70
2022-10-16T21:07:58.534Z,13.70
2022-10-16T21:10:26.480Z,13.70
2022-10-16T21:12:55.427Z,13.70
2022-10-16T21:15:23.413Z,13.70
2022-10-16T21:17:51.454Z,13.70
2022-10-16T21:20:19.496Z,13.70
2022-10-16T21:22:47.495Z,13.70
2022-10-16T21:25:17.092Z,13.70
2022-10-16T21:27:44.996Z,13.70
2022-10-16T21:30:12.915Z,13.70
2022-10-16T21:32:41.098Z,13.70
2022-10-16T21:35:09.575Z,13.70
2022-10-16T21:37:37.483Z,13.70
2022-10-16T21:40:05.955Z,13.70
2022-10-16T21:42:35.237Z,13.70
2022-10-16T21:45:03.165Z,13.70
2022-10-16T21:47:31.177Z,13.70
2022-10-16T21:49:59.082Z,13.70
2022-10-16T21:52:27.165Z,13.70
2022-10-16T21:54:55.628Z,13.70
2022-10-16T21:57:23.591Z,13.70
2022-10-16T21:59:52.997Z,13.70
2022-10-16T22:02:20.924Z,13.70
2022-10-16T22:04:48.888Z,13.70
2022-10-16T22:07:16.857Z,13.70
2022-10-16T22:09:44.764Z,13.70
2022-10-16T22:12:12.875Z,13.70
2022-10-16T22:14:41.021Z,13.70
2022-10-16T22:17:10.348Z,13.70
2022-10-16T22:19:38.178Z,13.70
2022-10-16T22:22:06.126Z,13.70
2022-10-16T22:24:34.095Z,13.70
2022-10-16T22:27:01.985Z,13.70
2022-10-16T22:29:29.915Z,13.60
2022-10-16T22:31:57.828Z,13.60
2022-10-16T22:34:28.037Z,13.70
2022-10-16T22:36:56.024Z,13.70
2022-10-16T22:39:24.006Z,13.60
2022-10-16T22:41:51.964Z,13.60
2022-10-16T22:44:19.836Z,13.60
2022-10-16T22:46:47.762Z,13.60
2022-10-16T22:49:17.374Z,13.60
2022-10-16T22:51:46.651Z,13.60
2022-10-16T22:54:14.902Z,13.60
2022-10-16T22:56:43.215Z,13.60
2022-10-16T22:59:11.291Z,13.60
2022-10-16T23:01:40.473Z,13.60
2022-10-16T23:04:08.749Z,13.60
2022-10-16T23:06:36.783Z,13.60
2022-10-16T23:09:06.141Z,13.60
2022-10-16T23:11:34.034Z,13.60
2022-10-16T23:14:01.979Z,13.60
2022-10-16T23:16:29.838Z,13.60
2022-10-16T23:18:57.727Z,13.60
2022-10-16T23:21:26.736Z,13.50
2022-10-16T23:23:55.107Z,13.50
2022-10-16T23:26:25.596Z,13.50
2022-10-16T23:28:53.670Z,13.50
2022-10-16T23:31:21.669Z,13.50
2022-10-16T23:33:49.577Z,13.40
2022-10-16T23:36:18.911Z,13.40
2022-10-16T23:38:47.583Z,13.40
2022-10-16T23:41:16.211Z,13.40
2022-10-16T23:43:45.664Z,13.40
2022-10-16T23:46:14.377Z,13.40
2022-10-16T23:48:42.488Z,13.40
2022-10-16T23:51:10.756Z,13.40
2022-10-16T23:53:38.715Z,13.40
2022-10-16T23:56:06.802Z,13.40
2022-10-16T23:58:34.824Z,13.40
